»·PEaware :: WAT234 KSAN-KSNA

WAT234 :: KSAN-KSNA

FLIGHT INFORMATION

Flight Status: Arrived
Operator:
Walker Air Transport
More flights by this operator :: More flights under this callsign
Pilot: Eduardo Elias G. (24838)
Aircraft: CIRRUS SR-22
(SR22)
More flights by this aircraft type
Origin: KSAN San Diego Intl-Lindbergh
United States
Destination: KSNA John Wayne-Orange Co
United States
More flights between these airports :: More routes between these airports
Route: OCN V23 SLI
File this flight plan on PilotEdge
Remarks: Tec route SANP3 / No SID
Altitude:
(Current/Filed)
6,000ft
Speed:
(Current/Filed)
150kts
Departed: 19-Aug-20 09:04 PM
Arrived: 19-Aug-20 09:34 PM
Distance/Time
Traveled:
66nm/0:30
Distance/Time
To Go:
Arrived

Flight Plot

Page will automatically refresh every two minutes.


Map Options




Map Legend


Flown Route
Filed Route
Departure Airport
Arrival Airport
Navaid (VOR, NDB)
Fix

Horizontal Profiles

Position Reports

Time Latitude Longitude Heading Altitude Ground
Speed
19-Aug-20 20:49 32.733456 -117.178641 17 20ft 0kts
19-Aug-20 20:50 32.733456 -117.178641 17 20ft 0kts
19-Aug-20 20:52 32.733456 -117.178641 17 20ft 0kts
19-Aug-20 20:53 32.733456 -117.178641 17 20ft 0kts
19-Aug-20 20:54 32.733456 -117.178641 17 20ft 0kts
19-Aug-20 20:55 32.733456 -117.178641 17 20ft 0kts
19-Aug-20 20:56 32.733456 -117.178641 17 20ft 0kts
19-Aug-20 20:57 32.733456 -117.178641 17 20ft 0kts
19-Aug-20 20:58 32.733456 -117.178641 17 20ft 0kts
19-Aug-20 20:59 32.733456 -117.178641 17 20ft 0kts
19-Aug-20 21:00 32.733481 -117.179241 261 20ft 6kts
19-Aug-20 21:01 32.732059 -117.178800 106 20ft 11kts
19-Aug-20 21:02 32.731145 -117.175717 141 20ft 0kts
19-Aug-20 21:03 32.730178 -117.175711 288 20ft 13kts
19-Aug-20 21:04 32.742940 -117.203298 319 1076ft 118kts
19-Aug-20 21:05 32.772848 -117.230707 321 2141ft 149kts
19-Aug-20 21:06 32.801208 -117.255832 321 3936ft 110kts
19-Aug-20 21:07 32.826135 -117.277838 321 5257ft 113kts
19-Aug-20 21:08 32.853041 -117.301837 321 6022ft 145kts
19-Aug-20 21:09 32.888256 -117.333891 321 6002ft 165kts
19-Aug-20 21:09 32.919311 -117.361170 338 5987ft 169kts
19-Aug-20 21:11 32.973598 -117.370223 349 5998ft 169kts
19-Aug-20 21:11 33.012434 -117.377041 349 5996ft 169kts
19-Aug-20 21:12 33.059008 -117.385313 349 6012ft 168kts
19-Aug-20 21:14 33.113173 -117.394953 349 6019ft 169kts
19-Aug-20 21:14 33.152196 -117.401930 349 6018ft 170kts
19-Aug-20 21:15 33.199094 -117.410325 349 6018ft 170kts
19-Aug-20 21:17 33.250080 -117.429010 315 6022ft 167kts
19-Aug-20 21:17 33.278052 -117.461333 314 6017ft 168kts
19-Aug-20 21:18 33.311706 -117.500544 315 6017ft 168kts
19-Aug-20 21:19 33.345234 -117.539646 315 6017ft 168kts
19-Aug-20 21:20 33.378753 -117.578781 315 6017ft 168kts
19-Aug-20 21:21 33.413409 -117.615860 331 6014ft 168kts
19-Aug-20 21:22 33.455264 -117.640919 332 6041ft 167kts
19-Aug-20 21:23 33.496643 -117.665678 331 6158ft 165kts
19-Aug-20 21:24 33.538820 -117.687468 341 6273ft 166kts
19-Aug-20 21:25 33.583472 -117.702785 341 6394ft 165kts
19-Aug-20 21:26 33.631201 -117.719294 341 5501ft 189kts
19-Aug-20 21:27 33.682625 -117.737476 341 4455ft 188kts
19-Aug-20 21:28 33.729960 -117.754075 341 4455ft 172kts
19-Aug-20 21:29 33.770002 -117.778948 276 4454ft 167kts
19-Aug-20 21:30 33.735040 -117.819128 212 3705ft 181kts
19-Aug-20 21:31 33.707138 -117.845434 218 2572ft 94kts
19-Aug-20 21:32 33.682373 -117.862811 209 118ft 88kts
19-Aug-20 21:33 33.673843 -117.867469 120 59ft 7kts
19-Aug-20 21:34 33.673830 -117.867439 112 59ft 0kts
19-Aug-20 21:35 33.673166 -117.867135 213 59ft 6kts
19-Aug-20 21:36 33.671831 -117.867038 224 59ft 3kts
19-Aug-20 21:37 33.671796 -117.867170 295 59ft 0kts
19-Aug-20 21:38 33.671795 -117.867170 295 59ft 0kts
19-Aug-20 21:39 33.671795 -117.867170 295 59ft 0kts
19-Aug-20 21:40 33.671795 -117.867170 295 59ft 0kts
19-Aug-20 21:41 33.671795 -117.867170 295 59ft 0kts
19-Aug-20 21:42 33.671795 -117.867170 295 59ft 0kts

Navigation Log

Ident Type
Flight plan parsing failed, navigation log unavailable